Angler Guide Weather for Koosharem -
Koosharem, Utah Current Weather Conditions
Enter your "Place, State", US Zip Code or ICAO:  
NowCast ZoneCast Warnings/Advisories Hourly Track Special Radar
Koosharem, Utah (84744)  Lat: 38.51N, Lon: 111.88W
Wx Zone: UTZ017 ICAO Used: KBCE
Current Conditions at nearby:
Bryce Canyon, Bryce Canyon Airport, UT
Updated: UNKNOWN
Sun & Moon Information:
Partly Cloudy
Partly Cloudy
Temp: 77°F
Humidity: 29%
Wind Speed: SE 5.8 MPH (5 KT)
Barometer: 30.33 in.
Dewpoint: 42°F
Heat Index: 77°F
Wind Chill: 77°F
Civil Twilight: 5:52 AM MDT
Moonrise: N/A MDT Moon Phase:
Waning Gibbous Moon
Waning Gibbous Moon
Moonset: 12:34 PM MDT
Sunrise: 6:22 AM MDT
Sunset: 8:43 PM MDT
Civil Twilight: 9:13 PM MDT
Forecast for Koosharem, UT:
(Forecast based on TAF for )
0600 PM MDT SUN NOV 29 2015
  
EVENINGOVERNIGHTMORNINGAFTERNOON
TAF based forecast:
Dated: 0600 PM MDT SUN NOV 29 2015
Evening....
Overnight....
Morning....
Afternoon....
Original Encoded TAF:
Dated: 0600 PM MDT SUN NOV 29 2015
2016/07/25 23:51
TAF 
      AMD KBCE 252250Z 2523/2618 14011KT P6SM VCSH SCT060 BKN090 
     FM260100 26007KT P6SM SCT090



Powered by Angler Guide.com
Copyright 2007, all rights reserved.